Abilene, Texas
Current Conditions -  °F | °C
As of 11:52 PM on Saturday 25 Oct 2014 (Local Time) from KABI Reporting Station
Clear Clear  
Wind Chill: 74°   Ceiling: Unl
Heat Index: 74°   Visibility: 10mi
Dew Point: 54°   Wind: 12mph
Humidity: 50%   Direction: 180°S
Pressure: 30.07"   Gusts: NA
Location:  32.45°N, 99.74°W
Report Text: KABI 260452Z 18010KT 10SM CLR 23/12 A3007 RMK AO2 SLP157 T02330122 $
Loading
Personal Weather Stations






























Interactive Weather Map
Tropical Storm Tracking
New forecast layout! Learn more

10-Day Weather Forecast

Advertisements
Track Severe Weather on mobile